Time;durP1;ratioP1;P1;durP2;ratioP2;P2;SDS_P1;SDS_P2;PMS_P1;PMS_P2;Temp;Humidity;BMP_temperature;BMP_pressure;BME280_temperature;BME280_humidity;BME280_pressure;Samples;Min_cycle;Max_cycle;Signal;HPM_P1;HPM_P2
2023/02/08 10:12:20;;;;;;;22.03;20.10;;;10.20;53.40;;;;;;5126288;27;20589;-76
2023/02/08 10:14:58;;;;;;;23.43;21.50;;;10.10;53.10;;;;;;5126519;27;20966;-76
2023/02/08 10:17:42;;;;;;;23.57;21.57;;;10.00;52.10;;;;;;5126627;27;20448;-76
2023/02/08 10:20:24;;;;;;;25.17;22.47;;;9.40;53.50;;;;;;5126516;27;20512;-76
2023/02/08 10:22:58;;;;;;;22.27;20.27;;;9.00;54.50;;;;;;5126546;27;20444;-76
2023/02/08 10:25:51;;;;;;;22.50;20.80;;;9.60;53.80;;;;;;5126238;27;20462;-76
2023/02/08 10:28:33;;;;;;;23.17;21.07;;;9.20;53.40;;;;;;5126161;27;20453;-76
2023/02/08 10:31:07;;;;;;;21.90;20.10;;;9.20;54.00;;;;;;5126212;27;20480;-76
2023/02/08 10:33:41;;;;;;;21.63;19.93;;;9.80;53.50;;;;;;5126453;27;20457;-76
2023/02/08 10:36:14;;;;;;;22.30;20.40;;;10.00;51.40;;;;;;5126357;27;20449;-76
2023/02/08 10:38:41;;;;;;;21.87;20.20;;;9.90;52.50;;;;;;5126069;27;20448;-75
2023/02/08 10:41:13;;;;;;;20.97;19.17;;;10.20;51.60;;;;;;5126200;27;20449;-76
2023/02/08 10:43:46;;;;;;;19.90;18.30;;;9.80;52.30;;;;;;5125688;27;20948;-75
2023/02/08 10:46:20;;;;;;;22.23;20.10;;;10.10;51.10;;;;;;5125932;27;20501;-76
2023/02/08 10:48:55;;;;;;;20.77;19.07;;;9.30;51.60;;;;;;5125690;27;20445;-76
2023/02/08 10:51:22;;;;;;;22.50;20.57;;;9.50;53.30;;;;;;5125658;27;20520;-76
2023/02/08 10:53:49;;;;;;;20.30;18.80;;;9.60;52.60;;;;;;5125891;27;20449;-76
2023/02/08 10:56:35;;;;;;;21.90;19.97;;;9.50;52.60;;;;;;5125677;27;20923;-76
2023/02/08 10:59:12;;;;;;;21.33;19.53;;;9.80;52.70;;;;;;5125752;27;20595;-75
2023/02/08 11:01:38;;;;;;;22.20;20.20;;;9.60;51.90;;;;;;5125641;27;20498;-76
2023/02/08 11:04:08;;;;;;;25.27;23.00;;;9.70;51.90;;;;;;5125832;27;20947;-76
2023/02/08 11:06:36;;;;;;;22.70;20.43;;;9.90;51.80;;;;;;5125813;27;20560;-76
2023/02/08 11:09:03;;;;;;;21.90;20.10;;;10.10;50.20;;;;;;5125196;27;20464;-76
2023/02/08 11:11:35;;;;;;;20.77;19.00;;;10.40;51.10;;;;;;5120951;27;20497;-75
2023/02/08 11:14:15;;;;;;;21.30;19.60;;;10.30;50.10;;;;;;5111688;28;20446;-75
2023/02/08 11:16:42;;;;;;;20.43;18.77;;;10.30;50.50;;;;;;5111594;28;20681;-75
2023/02/08 11:19:22;;;;;;;21.57;19.73;;;10.90;50.00;;;;;;5111852;28;20841;-76
2023/02/08 11:21:51;;;;;;;20.40;18.60;;;11.30;50.10;;;;;;5112167;27;20445;-77
2023/02/08 11:24:33;;;;;;;20.33;18.83;;;12.40;48.80;;;;;;5111936;28;20487;-76
2023/02/08 11:27:00;;;;;;;21.13;19.47;;;13.10;47.20;;;;;;5111945;28;20723;-75
2023/02/08 11:29:30;;;;;;;20.30;18.83;;;13.20;45.70;;;;;;5111834;28;20449;-76
2023/02/08 11:31:59;;;;;;;22.20;20.40;;;13.30;46.20;;;;;;5111619;28;20577;-75
2023/02/08 11:34:27;;;;;;;29.63;21.13;;;14.10;46.00;;;;;;5111643;28;20515;-77
2023/02/08 11:36:55;;;;;;;19.90;18.40;;;14.80;44.40;;;;;;5111577;28;20465;-75
2023/02/08 11:39:25;;;;;;;19.27;18.00;;;15.80;42.70;;;;;;5111816;28;20597;-77
2023/02/08 11:41:56;;;;;;;19.20;17.97;;;15.50;40.70;;;;;;5111763;28;20450;-75
2023/02/08 11:44:25;;;;;;;19.57;18.23;;;14.60;41.60;;;;;;5111873;27;20453;-75
2023/02/08 11:46:54;;;;;;;19.50;18.00;;;13.70;41.70;;;;;;5111481;27;20503;-76
2023/02/08 11:49:24;;;;;;;18.67;17.27;;;13.10;41.70;;;;;;5111682;28;20854;-76
2023/02/08 11:51:51;;;;;;;19.73;18.43;;;12.60;42.90;;;;;;5111138;28;20968;-77
2023/02/08 11:54:36;;;;;;;20.30;18.83;;;12.30;43.30;;;;;;5111073;28;20491;-75
2023/02/08 11:57:12;;;;;;;20.00;18.40;;;13.40;42.80;;;;;;5111056;28;20461;-75
2023/02/08 11:59:39;;;;;;;18.30;17.00;;;13.60;42.00;;;;;;5110882;28;20492;-75
2023/02/08 12:02:28;;;;;;;19.33;17.87;;;13.00;42.50;;;;;;5111221;28;20465;-75
2023/02/08 12:04:55;;;;;;;17.70;16.40;;;12.90;43.40;;;;;;5110829;28;20507;-75
2023/02/08 12:07:35;;;;;;;18.40;16.83;;;13.60;43.40;;;;;;5110654;27;20470;-75
2023/02/08 12:10:24;;;;;;;17.60;16.40;;;13.90;41.90;;;;;;5110451;28;20485;-75
2023/02/08 12:13:07;;;;;;;18.40;17.10;;;15.20;41.50;;;;;;5108214;28;20469;-75
2023/02/08 12:15:43;;;;;;;17.03;15.80;;;15.90;40.30;;;;;;5110759;28;20502;-76
2023/02/08 12:18:35;;;;;;;18.73;17.43;;;16.10;39.60;;;;;;5110154;28;20450;-76
2023/02/08 12:21:10;;;;;;;19.80;18.33;;;15.80;38.10;;;;;;5110529;28;20445;-76
2023/02/08 12:23:49;;;;;;;18.40;16.90;;;15.00;38.90;;;;;;5109555;28;20456;-75
2023/02/08 12:26:23;;;;;;;16.40;15.40;;;14.30;40.60;;;;;;5110241;28;20462;-76
2023/02/08 12:29:03;;;;;;;16.60;15.60;;;14.20;40.60;;;;;;5110573;28;20457;-76
2023/02/08 12:31:42;;;;;;;16.43;15.33;;;14.40;40.90;;;;;;5110008;28;20537;-75
2023/02/08 12:34:17;;;;;;;16.63;15.43;;;13.90;40.10;;;;;;5110281;28;20446;-76
2023/02/08 12:43:12;;;;;;;16.20;15.10;;;13.40;40.70;;;;;;5109928;28;20786;-75
2023/02/08 12:46:21;;;;;;;16.50;15.40;;;12.90;41.70;;;;;;5109748;28;20446;-75
2023/02/08 12:49:18;;;;;;;16.17;15.07;;;13.40;41.20;;;;;;5077125;28;20454;-76
2023/02/08 12:51:53;;;;;;;17.10;15.93;;;13.30;42.00;;;;;;5109662;28;20477;-75
2023/02/08 12:54:30;;;;;;;16.27;15.27;;;13.30;41.60;;;;;;5110084;28;20473;-75
2023/02/08 12:56:58;;;;;;;15.90;15.00;;;13.80;41.10;;;;;;5109824;28;20709;-74
2023/02/08 12:59:30;;;;;;;17.43;16.10;;;12.60;42.00;;;;;;5109810;28;20454;-74
2023/02/08 13:02:02;;;;;;;17.93;16.60;;;12.30;43.00;;;;;;5109528;28;20735;-76
2023/02/08 13:04:37;;;;;;;17.10;15.70;;;11.60;44.20;;;;;;5109583;28;20442;-76
2023/02/08 13:07:11;;;;;;;16.60;15.30;;;11.10;46.10;;;;;;5109758;28;20469;-76
2023/02/08 13:09:43;;;;;;;15.30;14.30;;;11.60;44.90;;;;;;5109635;28;21001;-76
2023/02/08 13:12:15;;;;;;;14.30;13.27;;;12.30;44.10;;;;;;5109388;28;20493;-76
2023/02/08 13:14:47;;;;;;;15.83;14.73;;;13.20;43.00;;;;;;5109906;28;20928;-76
2023/02/08 13:17:18;;;;;;;16.00;14.80;;;13.30;42.10;;;;;;5109892;28;20450;-76
2023/02/08 13:19:54;;;;;;;14.80;13.60;;;13.00;42.00;;;;;;5109941;28;20454;-76
2023/02/08 13:22:21;;;;;;;16.00;14.77;;;12.80;42.40;;;;;;5109610;27;20453;-75
2023/02/08 13:24:49;;;;;;;16.57;15.40;;;12.60;42.20;;;;;;5109255;28;20456;-76
2023/02/08 13:27:18;;;;;;;15.37;14.37;;;11.30;43.20;;;;;;5109061;28;20939;-76
2023/02/08 13:29:46;;;;;;;14.43;13.43;;;10.20;45.00;;;;;;5109210;28;20457;-76
2023/02/08 13:32:21;;;;;;;14.50;13.40;;;8.80;47.90;;;;;;5108897;28;20597;-76
2023/02/08 13:34:53;;;;;;;14.30;13.20;;;8.10;50.00;;;;;;5108899;28;20540;-75
2023/02/08 13:37:21;;;;;;;14.90;13.87;;;7.20;51.80;;;;;;5109352;28;20890;-75
2023/02/08 13:39:50;;;;;;;14.33;13.37;;;6.80;53.50;;;;;;5109310;28;20507;-75
2023/02/08 13:42:21;;;;;;;13.30;12.30;;;6.50;54.30;;;;;;5109222;28;20442;-75
2023/02/08 13:44:51;;;;;;;14.00;12.87;;;6.30;56.30;;;;;;5109116;28;20520;-75
2023/02/08 13:47:25;;;;;;;14.13;13.13;;;6.20;56.40;;;;;;5108932;28;20809;-75
2023/02/08 13:49:57;;;;;;;13.10;12.10;;;6.00;56.40;;;;;;5109078;28;20536;-75
2023/02/08 13:52:46;;;;;;;14.07;13.07;;;6.00;58.30;;;;;;5108900;28;20550;-75
2023/02/08 13:56:04;;;;;;;20.73;13.00;;;5.80;58.50;;;;;;5108727;28;20450;-75
2023/02/08 13:59:00;;;;;;;13.87;12.90;;;5.80;58.40;;;;;;5108701;28;20862;-75
2023/02/08 14:01:28;;;;;;;14.33;13.30;;;5.80;59.00;;;;;;5072749;28;20575;-76
2023/02/08 14:04:37;;;;;;;14.80;13.27;;;5.80;59.30;;;;;;5108534;28;20446;-76
2023/02/08 14:07:20;;;;;;;12.97;11.97;;;5.70;59.20;;;;;;5108785;28;20465;-75
2023/02/08 14:09:58;;;;;;;15.40;14.20;;;5.60;60.40;;;;;;5108470;28;20437;-75
2023/02/08 14:12:29;;;;;;;15.60;13.90;;;5.60;60.10;;;;;;5108650;28;20898;-75
2023/02/08 14:15:24;;;;;;;14.60;13.40;;;5.50;61.30;;;;;;5108776;28;20453;-75
2023/02/08 14:17:54;;;;;;;14.87;13.70;;;5.40;62.00;;;;;;5108858;28;20543;-75
2023/02/08 14:20:27;;;;;;;15.47;14.17;;;5.50;63.20;;;;;;5108873;28;20449;-76
2023/02/08 14:22:57;;;;;;;15.30;14.10;;;5.50;62.60;;;;;;5108602;28;20470;-75
2023/02/08 14:25:27;;;;;;;14.10;13.00;;;5.50;62.80;;;;;;5108406;28;20449;-75
2023/02/08 14:27:55;;;;;;;14.67;13.57;;;5.40;62.70;;;;;;5108440;28;20458;-75
2023/02/08 14:30:27;;;;;;;14.17;13.10;;;5.40;63.10;;;;;;5108538;28;20457;-73
2023/02/08 14:33:11;;;;;;;14.53;13.33;;;5.40;63.80;;;;;;5108313;28;21186;-74
2023/02/08 14:35:41;;;;;;;13.83;12.50;;;5.40;63.60;;;;;;5108781;28;20519;-75
2023/02/08 14:38:53;;;;;;;13.87;12.67;;;5.30;64.30;;;;;;5108423;28;20445;-75
2023/02/08 14:41:44;;;;;;;14.03;12.90;;;5.30;66.00;;;;;;5108585;28;20441;-75
2023/02/08 14:44:53;;;;;;;14.67;13.57;;;5.30;65.80;;;;;;5108230;28;20438;-74
2023/02/08 14:47:56;;;;;;;15.40;14.10;;;5.20;66.60;;;;;;5110443;28;20818;-74
2023/02/08 14:50:29;;;;;;;15.37;14.10;;;5.10;66.60;;;;;;5079565;28;20445;-75
2023/02/08 14:53:05;;;;;;;15.60;14.30;;;5.00;66.90;;;;;;5111801;28;20650;-74
2023/02/08 14:55:40;;;;;;;15.10;13.93;;;5.00;67.20;;;;;;5112075;28;20550;-75
2023/02/08 14:58:12;;;;;;;14.83;13.73;;;4.90;67.70;;;;;;5112284;28;20456;-75
2023/02/08 15:00:39;;;;;;;16.60;14.93;;;4.90;67.80;;;;;;5112089;28;20450;-75
2023/02/08 15:03:14;;;;;;;15.63;14.43;;;4.90;69.00;;;;;;5112240;28;20445;-75
2023/02/08 15:05:48;;;;;;;15.30;14.00;;;4.90;68.80;;;;;;5111963;27;20466;-75
2023/02/08 15:08:20;;;;;;;15.10;13.83;;;4.90;69.30;;;;;;5111766;28;20544;-74
2023/02/08 15:10:47;;;;;;;15.63;14.33;;;4.90;70.00;;;;;;5111774;28;20481;-73
2023/02/08 15:13:20;;;;;;;15.37;13.77;;;4.80;68.90;;;;;;5111609;28;20526;-74
2023/02/08 15:15:52;;;;;;;14.77;13.53;;;4.70;70.70;;;;;;5111818;27;20484;-73
2023/02/08 15:18:22;;;;;;;16.13;14.80;;;4.50;70.50;;;;;;5111819;27;20449;-74
2023/02/08 15:21:02;;;;;;;16.03;14.73;;;4.50;71.20;;;;;;5111877;27;20450;-74
2023/02/08 15:23:30;;;;;;;15.83;14.53;;;4.40;71.50;;;;;;5111519;28;20457;-74
2023/02/08 15:26:00;;;;;;;14.20;13.10;;;4.40;72.60;;;;;;5111458;27;20477;-74
2023/02/08 15:28:31;;;;;;;15.43;14.10;;;4.30;71.80;;;;;;5111264;28;20816;-75
2023/02/08 15:31:00;;;;;;;15.27;13.97;;;4.40;72.50;;;;;;5111323;28;20454;-75
2023/02/08 15:33:28;;;;;;;16.63;15.07;;;4.40;73.20;;;;;;5111372;28;20446;-74
2023/02/08 15:35:57;;;;;;;15.83;14.60;;;4.40;73.40;;;;;;5111276;28;20461;-75
2023/02/08 15:38:24;;;;;;;16.43;15.03;;;4.30;73.20;;;;;;5111123;28;20450;-75
2023/02/08 15:41:04;;;;;;;16.40;15.30;;;4.30;72.80;;;;;;5111464;28;20507;-74
2023/02/08 15:43:32;;;;;;;15.77;14.43;;;4.20;73.50;;;;;;5111095;28;20450;-75
2023/02/08 15:46:00;;;;;;;17.23;15.83;;;4.10;74.20;;;;;;5111007;28;20446;-75
2023/02/08 15:48:29;;;;;;;18.03;16.50;;;4.10;75.10;;;;;;5111012;28;20454;-76
2023/02/08 15:50:57;;;;;;;23.07;16.33;;;4.00;76.00;;;;;;5110918;28;20457;-75
2023/02/08 15:53:25;;;;;;;20.20;18.40;;;4.00;77.00;;;;;;5110860;28;20870;-74
2023/02/08 15:55:55;;;;;;;20.90;18.97;;;3.90;78.10;;;;;;5110943;28;20536;-75
2023/02/08 15:58:29;;;;;;;19.17;17.37;;;3.80;79.60;;;;;;5111080;28;20450;-75
2023/02/08 16:01:00;;;;;;;16.83;15.43;;;3.70;80.70;;;;;;5110774;28;20460;-75
2023/02/08 16:03:28;;;;;;;18.70;16.87;;;3.70;77.60;;;;;;5110496;27;20471;-74
2023/02/08 16:05:56;;;;;;;15.27;14.00;;;3.60;79.50;;;;;;5110453;28;20445;-74
2023/02/08 16:08:26;;;;;;;17.70;16.27;;;3.50;79.30;;;;;;5110709;28;20789;-75
2023/02/08 16:10:54;;;;;;;17.77;15.97;;;3.60;78.00;;;;;;5110537;28;20485;-74
2023/02/08 16:13:24;;;;;;;18.87;17.10;;;3.50;79.30;;;;;;5110788;28;20576;-74
2023/02/08 16:15:53;;;;;;;20.47;18.50;;;3.40;80.50;;;;;;5110622;28;20814;-74
2023/02/08 16:18:49;;;;;;;20.30;18.40;;;3.30;81.70;;;;;;5110704;28;20449;-75
2023/02/08 16:21:27;;;;;;;19.97;18.13;;;3.30;82.20;;;;;;5074267;28;20545;-74
2023/02/08 16:23:56;;;;;;;19.27;17.63;;;3.20;83.30;;;;;;5110128;28;20477;-74
2023/02/08 16:26:26;;;;;;;19.57;17.57;;;3.10;84.60;;;;;;5110270;28;20449;-74
2023/02/08 16:28:58;;;;;;;17.13;15.60;;;3.00;85.50;;;;;;5110507;28;20790;-74
2023/02/08 16:31:28;;;;;;;16.43;14.90;;;2.90;85.90;;;;;;5110486;28;20821;-74
2023/02/08 16:34:05;;;;;;;17.10;15.70;;;2.80;84.50;;;;;;5110066;28;20548;-74
2023/02/08 16:36:35;;;;;;;16.27;14.73;;;2.70;86.00;;;;;;5110165;27;20507;-75
2023/02/08 16:39:22;;;;;;;17.33;15.60;;;2.60;86.50;;;;;;5110224;28;20450;-75
2023/02/08 16:42:03;;;;;;;19.37;17.10;;;2.50;87.50;;;;;;5110454;28;21022;-75
2023/02/08 16:44:32;;;;;;;20.83;18.70;;;2.40;89.90;;;;;;5110035;28;20977;-74
2023/02/08 16:46:59;;;;;;;19.43;17.63;;;2.30;90.30;;;;;;5110018;28;20598;-75
2023/02/08 16:49:28;;;;;;;25.33;19.93;;;2.30;90.80;;;;;;5109768;27;20457;-74
2023/02/08 16:51:58;;;;;;;16.53;15.13;;;2.30;91.30;;;;;;5109831;28;20477;-74
2023/02/08 16:54:26;;;;;;;18.27;16.47;;;2.20;91.90;;;;;;5109914;28;20446;-75
2023/02/08 16:56:58;;;;;;;19.40;15.73;;;2.00;92.10;;;;;;5109812;28;20462;-75
2023/02/08 16:59:26;;;;;;;16.80;15.20;;;1.80;92.60;;;;;;5109998;28;20457;-73
2023/02/08 17:01:55;;;;;;;17.43;14.00;;;1.60;93.40;;;;;;5109815;28;20778;-74
2023/02/08 17:04:22;;;;;;;14.73;13.27;;;1.40;93.70;;;;;;5109803;28;20457;-74
2023/02/08 17:06:50;;;;;;;13.87;12.67;;;1.30;94.10;;;;;;5109711;28;20461;-74
2023/02/08 17:09:17;;;;;;;14.90;13.37;;;1.20;94.60;;;;;;5109139;28;20541;-74
2023/02/08 17:11:43;;;;;;;15.33;13.67;;;1.10;94.50;;;;;;5109384;28;20661;-73
2023/02/08 17:14:10;;;;;;;13.90;12.50;;;1.00;95.10;;;;;;5109349;28;20455;-73
2023/02/08 17:16:38;;;;;;;12.87;11.77;;;0.90;95.50;;;;;;5109817;28;20453;-74
2023/02/08 17:19:06;;;;;;;14.73;13.40;;;0.70;96.30;;;;;;5109623;28;20453;-73
2023/02/08 17:21:32;;;;;;;14.43;13.27;;;0.60;96.90;;;;;;5109408;28;20506;-74
2023/02/08 17:24:01;;;;;;;14.40;12.73;;;0.50;97.60;;;;;;5109151;28;20970;-74
2023/02/08 17:26:31;;;;;;;14.73;13.50;;;0.40;98.20;;;;;;5109134;28;20496;-73
2023/02/08 17:28:59;;;;;;;14.97;13.67;;;0.30;98.50;;;;;;5109423;28;20453;-73
2023/02/08 17:31:26;;;;;;;12.57;11.47;;;0.20;98.80;;;;;;5109147;28;20644;-74
2023/02/08 17:33:54;;;;;;;17.67;14.63;;;0.30;99.00;;;;;;5109167;28;20492;-73
2023/02/08 17:36:21;;;;;;;14.53;13.10;;;0.30;99.40;;;;;;5109336;28;20553;-73
2023/02/08 17:38:48;;;;;;;16.33;14.57;;;0.30;99.30;;;;;;5109392;28;20833;-74
2023/02/08 17:41:17;;;;;;;16.20;14.53;;;0.30;99.40;;;;;;5108921;28;20450;-73
2023/02/08 17:43:44;;;;;;;15.70;14.20;;;0.20;99.40;;;;;;5109127;28;21063;-74
2023/02/08 17:46:13;;;;;;;15.53;14.07;;;0.10;99.50;;;;;;5108943;28;20945;-73
2023/02/08 17:48:39;;;;;;;17.80;16.10;;;0.00;99.90;;;;;;5108965;28;20445;-73
2023/02/08 17:51:11;;;;;;;16.13;14.63;;;-0.10;99.90;;;;;;5109251;28;20450;-73
2023/02/08 17:53:39;;;;;;;17.20;15.33;;;-0.20;99.90;;;;;;5108967;28;20591;-73
2023/02/08 17:56:08;;;;;;;17.13;14.60;;;-0.20;99.90;;;;;;5108976;28;20809;-73
2023/02/08 17:58:36;;;;;;;22.17;17.40;;;-0.20;99.90;;;;;;5109080;28;20494;-73
